Pinckney, MI (48169)

17:21 EST le 29 janvier 2015 (GMT -0500)
Cobblestone Creek | Change Station
CLOSE
Current Station
Stations météorologiques personnelles
Location: Pinckney, MI
Altitude: 920 ft
Stations météo à proximité
Avis météorologiques actifs: Special Statement Préavis actif: Public Information Statement

Alt. 920 ft 42.45 °N, 83.91 °W | Updated 1 minute ago

Couvert
Couvert
31.6 ° F
Paraît 32 ° F
N
2.0
Vent Variable Vent de NNO
Gusts 8.0 mph

Aujourd'hui
Haut(e) -- | Bas -- ° F
--% Risque de précip.
Hier
Haut(e) -- | Bas -- ° F
Precip. -- pouce
7:52 AM 5:45 PM
Lune gibbeuse croissante, 77% visible
Pression 29.85 pouce
Visibilité 5.0 Miles terrestres
Nuages Nuageux 1500 ft
Couvert 2100 ft
Refroidissement éolien 32 ° F
Point de rosée 29 ° F
Humidité 90%
Précipitations 0.00 pouce
Profondeur de la couche neigeuse Non disponible.
UV 0 sur 12
Pollen .10 sur 12
Qualité de l'air Non disponible.
Flu Activity Non disponible.
METAR KOZW 292215Z AUTO 30010G15KT 5SM BR BKN015 OVC021 M01/M02 A2985 RMK AO2 T10061025

More Conditions Fewer Conditions

Pression 29.85 pouce
Visibilité 5.0 Miles terrestres
Nuages Nuageux 1500 ft
Couvert 2100 ft
Refroidissement éolien 32 ° F
Point de rosée 29 ° F
Humidité 90%
Précipitations 0.00 pouce
Profondeur de la couche neigeuse Non disponible.
UV 0 sur 12
Pollen .10 sur 12
Qualité de l'air Non disponible.
Flu Activity Non disponible.
METAR KOZW 292215Z AUTO 30010G15KT 5SM BR BKN015 OVC021 M01/M02 A2985 RMK AO2 T10061025

More Conditions Fewer Conditions

10-Day Weather Forecast

Almanac

Astronomie

Jan. 29, 2015 Lever Coucher
Temps réel
Crépuscule civil
Crépuscule nautique
Crépuscule astronomique
Lune
Durée de lumière visible
Longueur du jour
Tomorrow will be .
, % of the Moon is Illuminated

Extrêmes aujourd'hui

State Highs State Lows

Community

WunderPhotos

Upload Photos

1,791,629 Photos téléchargées !

WunderBlogs® & News

Nearby

Qualité de l'air

  Qualité de l'air Indice de la qualité de l'air Polluant
Not available.

Épaisseur de neige

Station Depth Altitude

Activité sismique

Ville Distance Mag. Time & Date
Minimum magnitude displayed is 2.5.

Températures des eaux côtières

Lieu Température

Stations météo à proximité